Time;durP1;ratioP1;P1;durP2;ratioP2;P2;SDS_P1;SDS_P2;PMS_P1;PMS_P2;Temp;Humidity;BMP_temperature;BMP_pressure;BME280_temperature;BME280_humidity;BME280_pressure;Samples;Min_cycle;Max_cycle;Signal;HPM_P1;HPM_P2
2022/11/16 00:01:12;;;;;;;;;24.50;22.00;;;;;12.54;100.00;98248.09;4951051;28;45652;-71
2022/11/16 00:03:37;;;;;;;;;32.33;28.67;;;;;12.54;100.00;98238.38;4966711;28;45547;-72
2022/11/16 00:06:05;;;;;;;;;14.00;11.75;;;;;12.56;100.00;98236.47;4941966;28;46408;-72
2022/11/16 00:08:33;;;;;;;;;10.00;10.00;;;;;12.59;100.00;98241.56;4946211;28;45403;-72
2022/11/16 00:11:05;;;;;;;;;4.80;4.80;;;;;12.73;95.93;98259.22;4950338;28;45430;-72
2022/11/16 00:13:32;;;;;;;;;0.00;0.00;;;;;12.87;91.95;98267.13;4947003;28;45505;-71
2022/11/16 00:15:58;;;;;;;;;0.00;0.00;;;;;13.00;87.42;98259.28;4944251;28;46208;-71
2022/11/16 00:18:23;;;;;;;;;0.00;0.00;;;;;13.12;87.97;98269.06;4935675;28;45425;-71
2022/11/16 00:20:49;;;;;;;;;0.00;0.00;;;;;13.20;90.05;98279.19;4943766;28;45680;-71
2022/11/16 00:23:15;;;;;;;;;3.50;2.50;;;;;13.26;90.48;98298.16;4948263;28;45475;-71
2022/11/16 00:25:40;;;;;;;;;14.75;12.25;;;;;13.28;92.49;98280.41;4941833;28;45507;-71
2022/11/16 00:28:06;;;;;;;;;19.50;18.00;;;;;13.24;94.08;98286.81;4937285;28;45406;-72
2022/11/16 00:30:31;;;;;;;;;18.25;15.75;;;;;13.23;94.65;98289.59;4953681;28;45439;-70
2022/11/16 00:33:01;;;;;;;;;16.25;14.50;;;;;13.20;95.05;98284.50;4942823;28;45418;-72
2022/11/16 00:35:27;;;;;;;;;17.25;14.50;;;;;13.19;95.37;98296.88;4941927;28;46266;-71
2022/11/16 00:37:52;;;;;;;;;16.50;14.50;;;;;13.18;95.29;98316.34;4953787;28;45481;-71
2022/11/16 00:40:17;;;;;;;;;14.25;14.25;;;;;13.15;95.28;98318.34;4955021;28;45494;-71
2022/11/16 00:42:43;;;;;;;;;11.00;11.00;;;;;13.13;94.79;98321.03;4941933;28;45328;-72
2022/11/16 00:45:09;;;;;;;;;10.25;10.25;;;;;13.12;95.54;98329.94;4941090;28;45795;-71
2022/11/16 00:47:34;;;;;;;;;13.00;12.75;;;;;13.13;95.72;98344.88;4954760;28;45430;-72
2022/11/16 00:50:00;;;;;;;;;9.50;8.25;;;;;13.12;96.18;98350.25;4948065;28;45391;-71
2022/11/16 00:52:25;;;;;;;;;11.25;11.25;;;;;13.13;96.41;98354.59;4935536;28;45424;-71
2022/11/16 00:54:51;;;;;;;;;11.00;10.25;;;;;13.14;96.22;98357.16;4935141;28;45586;-72
2022/11/16 00:57:16;;;;;;;;;12.25;12.25;;;;;13.14;96.18;98349.22;4933929;28;45768;-71
2022/11/16 00:59:42;;;;;;;;;12.25;10.75;;;;;13.14;96.52;98351.00;4935618;28;45368;-71
2022/11/16 01:02:07;;;;;;;;;10.25;10.00;;;;;13.13;96.11;98360.75;4945650;28;45553;-72
2022/11/16 01:04:32;;;;;;;;;9.25;9.25;;;;;13.11;95.27;98362.63;4940922;28;46071;-71
2022/11/16 01:06:58;;;;;;;;;9.00;9.00;;;;;13.03;95.98;98366.72;4953540;28;45458;-72
2022/11/16 01:09:23;;;;;;;;;12.75;9.00;;;;;12.96;96.63;98371.53;4949566;28;45410;-72
2022/11/16 01:14:32;;;;;;;;;7.00;5.75;;;;;12.89;97.01;98375.50;4947559;28;45496;-72
2022/11/16 01:16:58;;;;;;;;;8.25;7.50;;;;;12.86;96.68;98371.25;4944241;28;45404;-72
2022/11/16 01:19:24;;;;;;;;;8.25;6.50;;;;;12.87;96.61;98366.81;4950634;28;45419;-72
2022/11/16 01:21:49;;;;;;;;;7.25;6.75;;;;;12.88;96.79;98363.22;4951971;28;45446;-72
2022/11/16 01:24:15;;;;;;;;;9.00;9.00;;;;;12.90;97.56;98379.84;4943407;28;46634;-72
2022/11/16 01:26:40;;;;;;;;;9.00;7.00;;;;;12.91;97.21;98379.72;4938113;28;45339;-72
2022/11/16 01:29:05;;;;;;;;;10.00;8.00;;;;;12.91;97.87;98363.84;4956687;28;45526;-72
2022/11/16 01:31:31;;;;;;;;;11.00;10.50;;;;;12.92;97.90;98360.28;4956722;28;45459;-72
2022/11/16 01:33:56;;;;;;;;;9.00;9.00;;;;;12.94;98.15;98368.13;4937106;28;45791;-72
2022/11/16 01:36:22;;;;;;;;;7.50;7.50;;;;;12.93;97.82;98356.69;4938323;28;45467;-72
2022/11/16 01:38:47;;;;;;;;;7.00;7.00;;;;;12.93;98.07;98343.47;4937921;28;45797;-72
2022/11/16 01:41:18;;;;;;;;;5.00;5.00;;;;;12.92;98.02;98341.75;4938772;28;45383;-72
2022/11/16 01:43:55;;;;;;;;;6.00;5.00;;;;;12.93;98.25;98354.03;4938428;28;45634;-72
2022/11/16 01:46:22;;;;;;;;;5.40;5.20;;;;;12.93;98.05;98361.13;4937779;28;45486;-71
2022/11/16 01:48:53;;;;;;;;;6.00;6.00;;;;;12.91;98.04;98363.84;4942333;28;45476;-72
2022/11/16 01:51:19;;;;;;;;;8.00;7.50;;;;;12.91;98.32;98379.72;4938260;28;45417;-72
2022/11/16 01:53:45;;;;;;;;;6.25;6.00;;;;;12.90;98.60;98377.22;4938004;28;46679;-72
2022/11/16 01:56:10;;;;;;;;;11.00;11.00;;;;;12.89;98.14;98364.94;4953863;28;45407;-72
2022/11/16 01:58:36;;;;;;;;;10.00;8.75;;;;;12.89;98.37;98373.72;4957521;28;45391;-72
2022/11/16 02:01:02;;;;;;;;;2.00;2.00;;;;;12.89;98.61;98372.88;4957274;28;45336;-72
2022/11/16 02:03:27;;;;;;;;;7.75;7.75;;;;;12.88;98.39;98366.72;4956973;28;45455;-72
2022/11/16 02:06:26;;;;;;;;;7.00;7.00;;;;;12.89;98.30;98363.13;4969476;28;45381;-72
2022/11/16 02:12:06;;;;;;;;;7.00;6.75;;;;;12.87;98.79;98332.41;4957391;28;45387;-72
2022/11/16 02:14:43;;;;;;;;;6.25;6.25;;;;;12.88;98.31;98336.78;4937922;28;45535;-72
2022/11/16 02:17:43;;;;;;;;;6.40;6.40;;;;;12.85;98.59;98337.81;4968435;28;45458;-72
2022/11/16 02:20:23;;;;;;;;;6.25;6.25;;;;;12.86;98.91;98331.56;4971735;28;45353;-72
2022/11/16 02:23:07;;;;;;;;;8.25;7.25;;;;;12.85;98.48;98321.94;4957395;28;45582;-72
2022/11/16 02:26:03;;;;;;;;;6.25;6.00;;;;;12.83;98.45;98329.09;4957027;28;45593;-72
2022/11/16 02:28:47;;;;;;;;;7.00;6.80;;;;;12.79;98.61;98311.72;4956517;28;45399;-72
2022/11/16 02:31:19;;;;;;;;;5.00;5.00;;;;;12.76;98.50;98311.06;4956682;28;45464;-72
2022/11/16 02:33:49;;;;;;;;;6.00;4.50;;;;;12.72;98.26;98318.34;4956712;28;45430;-72
2022/11/16 02:36:19;;;;;;;;;6.60;4.00;;;;;12.71;98.64;98315.81;4944186;28;46522;-72
2022/11/16 02:38:53;;;;;;;;;4.80;3.60;;;;;12.69;98.21;98304.47;4943256;28;45448;-72
2022/11/16 02:41:22;;;;;;;;;3.00;3.00;;;;;12.66;98.25;98307.28;4942639;28;45477;-72
2022/11/16 02:43:58;;;;;;;;;3.00;3.00;;;;;12.63;98.16;98295.09;4937464;28;45557;-72
2022/11/16 02:46:31;;;;;;;;;3.80;3.00;;;;;12.61;97.80;98285.56;4937305;28;45714;-72
2022/11/16 02:49:01;;;;;;;;;2.20;2.20;;;;;12.58;98.11;98291.88;4948168;28;45400;-72
2022/11/16 02:51:29;;;;;;;;;3.40;3.00;;;;;12.54;98.02;98288.59;4956799;28;45396;-72
2022/11/16 02:54:11;;;;;;;;;3.50;2.00;;;;;12.54;98.18;98285.09;4956513;28;45521;-72
2022/11/16 02:57:15;;;;;;;;;3.00;3.00;;;;;12.52;97.89;98277.25;4937210;28;46308;-72
2022/11/16 02:59:49;;;;;;;;;7.20;5.60;;;;;12.51;98.72;98275.56;4917989;28;45620;-72
2022/11/16 03:02:52;;;;;;;;;1.00;1.00;;;;;12.48;99.15;98266.97;4937661;28;45397;-72
2022/11/16 03:05:30;;;;;;;;;6.75;5.00;;;;;12.47;99.30;98274.03;4916292;28;45372;-72
2022/11/16 03:08:22;;;;;;;;;10.25;8.00;;;;;12.44;99.64;98266.28;4955166;28;47639;-72
2022/11/16 03:13:37;;;;;;;;;6.00;6.00;;;;;12.40;99.55;98278.00;4937406;28;45407;-72
2022/11/16 03:16:10;;;;;;;;;8.25;7.50;;;;;12.40;99.58;98279.81;4939158;28;45411;-72
2022/11/16 03:18:38;;;;;;;;;6.00;5.00;;;;;12.39;99.34;98268.38;4936676;28;45573;-72
2022/11/16 03:21:11;;;;;;;;;4.60;4.60;;;;;12.36;99.28;98265.06;4937287;28;45381;-72
2022/11/16 03:23:37;;;;;;;;;4.00;4.00;;;;;12.34;99.19;98267.81;4937189;28;45363;-72
2022/11/16 03:26:06;;;;;;;;;4.00;4.00;;;;;12.31;99.02;98262.72;4943957;28;45609;-72
2022/11/16 03:28:45;;;;;;;;;3.50;3.00;;;;;12.30;98.75;98262.78;4956207;28;46671;-72
2022/11/16 03:31:17;;;;;;;;;5.60;5.60;;;;;12.28;99.23;98273.47;4955288;28;45391;-72
2022/11/16 03:33:52;;;;;;;;;5.50;5.50;;;;;12.27;99.56;98270.91;4942868;28;45633;-72
2022/11/16 03:36:34;;;;;;;;;4.00;4.00;;;;;12.25;99.67;98278.91;4955483;28;45414;-72
2022/11/16 03:39:23;;;;;;;;;4.50;4.50;;;;;12.22;99.52;98266.78;4956156;28;45457;-72
2022/11/16 03:41:49;;;;;;;;;4.40;4.40;;;;;12.19;99.35;98277.53;4955657;28;45489;-72
2022/11/16 03:44:18;;;;;;;;;4.75;4.25;;;;;12.17;99.68;98283.84;4956184;28;45379;-72
2022/11/16 03:46:44;;;;;;;;;6.50;5.00;;;;;12.12;99.82;98273.53;4954541;28;45537;-72
2022/11/16 03:49:10;;;;;;;;;5.00;5.00;;;;;12.09;99.59;98267.56;4955230;28;45570;-72
2022/11/16 03:51:36;;;;;;;;;6.00;6.00;;;;;12.06;99.77;98268.63;4942689;28;45395;-71
2022/11/16 03:54:02;;;;;;;;;6.50;5.00;;;;;12.02;100.00;98267.09;4970871;28;45379;-72
2022/11/16 03:56:27;;;;;;;;;5.00;5.00;;;;;12.00;99.76;98274.28;4936612;28;45387;-72
2022/11/16 03:58:53;;;;;;;;;4.25;4.25;;;;;11.96;99.66;98270.09;4948106;28;46036;-72
2022/11/16 04:01:18;;;;;;;;;6.00;3.75;;;;;11.92;99.80;98267.72;4964571;28;45359;-72
2022/11/16 04:03:43;;;;;;;;;4.50;4.00;;;;;11.86;99.88;98269.81;4936233;28;45482;-72
2022/11/16 04:25:59;;;;;;;;;5.00;4.00;;;;;11.52;100.00;98281.44;4935908;28;45517;-71
2022/11/16 04:28:30;;;;;;;;;5.25;4.75;;;;;11.47;100.00;98278.22;4938063;28;45694;-72
2022/11/16 04:39:11;;;;;;;;;6.25;6.00;;;;;11.31;100.00;98287.94;4954809;28;45509;-71
2022/11/16 04:44:21;;;;;;;;;7.40;6.00;;;;;11.24;100.00;98281.28;4955038;28;45333;-71
2022/11/16 04:49:31;;;;;;;;;10.75;7.00;;;;;11.22;100.00;98290.25;4944942;28;45473;-72
2022/11/16 04:51:57;;;;;;;;;9.50;9.00;;;;;11.22;100.00;98290.25;4958384;28;45455;-72
2022/11/16 04:54:22;;;;;;;;;7.00;7.00;;;;;11.21;100.00;98285.91;4957067;28;45467;-72
2022/11/16 04:56:47;;;;;;;;;7.75;7.00;;;;;11.22;100.00;98288.47;4950145;28;45283;-72
2022/11/16 04:59:13;;;;;;;;;6.50;6.00;;;;;11.21;100.00;98275.34;4938699;28;45624;-70
2022/11/16 05:04:22;;;;;;;;;4.80;4.80;;;;;11.23;100.00;98284.03;4938589;28;45501;-72
2022/11/16 05:06:47;;;;;;;;;6.50;5.00;;;;;11.22;100.00;98287.63;4939271;28;45391;-72
2022/11/16 05:09:13;;;;;;;;;4.50;4.50;;;;;11.20;100.00;98277.16;4941243;28;45433;-72
2022/11/16 05:11:39;;;;;;;;;6.75;5.00;;;;;11.21;100.00;98278.00;4947534;28;46163;-72
2022/11/16 05:14:05;;;;;;;;;7.00;7.00;;;;;11.19;100.00;98280.72;4938487;28;45390;-71
2022/11/16 05:16:31;;;;;;;;;7.50;6.25;;;;;11.16;100.00;98279.09;4938658;28;45570;-72
2022/11/16 05:21:42;;;;;;;;;5.75;5.75;;;;;11.14;100.00;98288.88;4944414;28;45526;-72
2022/11/16 05:26:52;;;;;;;;;6.25;6.25;;;;;11.14;100.00;98277.47;4938739;28;45502;-72
2022/11/16 05:29:19;;;;;;;;;10.00;9.75;;;;;11.12;100.00;98274.91;4938276;28;45615;-72
2022/11/16 05:31:45;;;;;;;;;16.00;14.50;;;;;11.11;100.00;98270.59;4946907;28;45534;-72
2022/11/16 05:34:10;;;;;;;;;13.25;13.00;;;;;11.10;100.00;98284.69;4957409;28;45626;-72
2022/11/16 05:36:37;;;;;;;;;14.25;12.00;;;;;11.08;100.00;98277.81;4957961;28;45787;-72
2022/11/16 05:39:03;;;;;;;;;11.00;11.00;;;;;11.07;100.00;98276.94;4957485;28;45546;-70
2022/11/16 05:41:29;;;;;;;;;15.00;10.75;;;;;11.06;100.00;98285.81;4957454;28;45425;-72
2022/11/16 05:43:54;;;;;;;;;9.25;8.75;;;;;11.04;100.00;98284.22;4948697;28;45505;-72
2022/11/16 05:46:21;;;;;;;;;8.00;8.00;;;;;11.02;100.00;98270.25;4940606;28;46048;-72
2022/11/16 05:48:46;;;;;;;;;14.50;8.75;;;;;11.00;100.00;98270.34;4957183;28;45524;-72
2022/11/16 05:51:11;;;;;;;;;10.00;9.75;;;;;10.97;100.00;98272.28;4956974;28;46261;-71
2022/11/16 05:53:37;;;;;;;;;12.00;9.75;;;;;10.95;100.00;98274.16;4957618;28;45502;-70
2022/11/16 05:56:03;;;;;;;;;11.25;10.00;;;;;10.93;100.00;98278.66;4957459;28;45524;-72
2022/11/16 05:58:29;;;;;;;;;14.50;10.00;;;;;10.92;100.00;98284.88;4957050;28;45561;-70
2022/11/16 06:00:54;;;;;;;;;13.75;13.75;;;;;10.90;100.00;98284.94;4972033;28;45651;-72
2022/11/16 06:03:19;;;;;;;;;10.00;9.50;;;;;10.88;100.00;98283.34;4956801;28;45444;-72
2022/11/16 06:05:45;;;;;;;;;16.00;15.50;;;;;10.88;100.00;98293.91;4957085;28;45403;-72
2022/11/16 06:08:11;;;;;;;;;13.00;11.00;;;;;10.83;100.00;98292.34;4937739;28;45597;-72
2022/11/16 06:10:36;;;;;;;;;11.25;11.25;;;;;10.82;100.00;98285.38;4952423;28;46213;-72
2022/11/16 06:13:02;;;;;;;;;14.25;13.00;;;;;10.81;100.00;98280.19;4956551;28;45446;-72
2022/11/16 06:15:27;;;;;;;;;7.25;7.25;;;;;10.79;100.00;98282.06;4953531;28;45729;-72
2022/11/16 06:17:53;;;;;;;;;5.75;5.25;;;;;10.72;100.00;98285.97;4937188;28;45381;-72
2022/11/16 06:20:18;;;;;;;;;10.50;7.50;;;;;10.68;100.00;98289.69;4937648;28;46349;-72
2022/11/16 06:22:44;;;;;;;;;6.00;5.50;;;;;10.64;100.00;98281.09;4956417;28;45372;-72
2022/11/16 06:25:12;;;;;;;;;4.75;4.75;;;;;10.63;100.00;98287.31;4956141;28;45355;-72
2022/11/16 06:27:40;;;;;;;;;4.00;3.00;;;;;10.62;100.00;98277.69;4970858;28;45444;-72
2022/11/16 06:30:06;;;;;;;;;7.25;4.00;;;;;10.63;100.00;98274.13;4969442;28;45401;-72
2022/11/16 06:32:32;;;;;;;;;10.60;8.80;;;;;10.64;100.00;98274.97;4956177;28;45393;-72
2022/11/16 06:34:57;;;;;;;;;8.00;6.00;;;;;10.66;100.00;98288.94;4954672;28;45384;-72
2022/11/16 06:37:23;;;;;;;;;10.50;9.00;;;;;10.68;100.00;98300.25;4954731;28;45540;-72
2022/11/16 06:39:48;;;;;;;;;11.00;10.25;;;;;10.68;100.00;98298.47;4954975;28;46037;-71
2022/11/16 06:42:13;;;;;;;;;12.00;10.50;;;;;10.69;100.00;98300.16;4953422;28;45411;-72
2022/11/16 06:44:39;;;;;;;;;13.25;10.50;;;;;10.70;100.00;98304.50;4954685;28;45367;-72
2022/11/16 06:47:04;;;;;;;;;13.25;10.50;;;;;10.72;100.00;98312.34;4955310;28;45760;-72
2022/11/16 06:49:30;;;;;;;;;13.00;13.00;;;;;10.74;100.00;98302.53;4955188;28;46085;-72
2022/11/16 06:51:55;;;;;;;;;14.25;13.50;;;;;10.75;100.00;98297.19;4953710;28;45467;-73
2022/11/16 06:54:20;;;;;;;;;14.00;10.50;;;;;10.77;100.00;98299.75;4955581;28;46012;-72
2022/11/16 06:56:46;;;;;;;;;10.75;10.75;;;;;10.78;100.00;98297.03;4954800;28;45458;-72
2022/11/16 06:59:11;;;;;;;;;13.75;10.75;;;;;10.80;100.00;98299.56;4955298;28;45501;-72
2022/11/16 07:01:36;;;;;;;;;12.00;10.75;;;;;10.82;100.00;98290.66;4955749;28;45374;-72
2022/11/16 07:04:02;;;;;;;;;12.50;11.75;;;;;10.84;100.00;98287.94;4954845;28;45418;-73
2022/11/16 07:06:28;;;;;;;;;14.25;11.75;;;;;10.84;100.00;98285.31;4954921;28;45483;-71
2022/11/16 07:08:53;;;;;;;;;17.25;14.75;;;;;10.86;100.00;98286.06;4954936;28;45561;-73
2022/11/16 07:11:19;;;;;;;;;16.50;12.50;;;;;10.89;100.00;98285.91;4949505;28;45375;-72
2022/11/16 07:13:44;;;;;;;;;16.50;16.50;;;;;10.93;100.00;98291.84;4940809;28;45448;-72
2022/11/16 07:16:11;;;;;;;;;14.75;13.25;;;;;10.95;100.00;98293.47;4942017;28;45379;-72
2022/11/16 07:18:38;;;;;;;;;16.00;13.25;;;;;10.96;100.00;98284.63;4967396;28;46762;-70
2022/11/16 07:21:12;;;;;;;;;16.00;14.50;;;;;10.98;100.00;98295.09;4938900;28;45412;-72
2022/11/16 07:23:38;;;;;;;;;16.25;11.00;;;;;11.01;100.00;98293.13;4938082;28;45502;-70
2022/11/16 07:26:06;;;;;;;;;15.25;14.25;;;;;11.03;100.00;98304.47;4935656;28;45397;-72
2022/11/16 07:28:33;;;;;;;;;16.25;16.00;;;;;11.05;100.00;98299.94;4934989;28;45730;-77
2022/11/16 07:31:06;;;;;;;;;19.00;15.25;;;;;11.07;100.00;98305.13;4942975;28;45431;-72
2022/11/16 07:33:33;;;;;;;;;19.00;16.75;;;;;11.07;100.00;98305.97;4950938;28;45560;-72
2022/11/16 07:36:06;;;;;;;;;18.00;18.00;;;;;11.07;100.00;98305.13;4944494;28;45589;-72
2022/11/16 07:38:33;;;;;;;;;16.25;14.75;;;;;11.10;100.00;98310.22;4952839;28;46647;-72
2022/11/16 07:41:00;;;;;;;;;11.75;11.00;;;;;11.11;100.00;98304.03;4953571;28;45491;-71
2022/11/16 07:43:36;;;;;;;;;16.00;10.00;;;;;11.07;100.00;98310.38;4952310;28;45358;-71
2022/11/16 07:46:03;;;;;;;;;14.00;14.00;;;;;11.05;100.00;98312.28;4947439;28;45366;-71
2022/11/16 07:48:29;;;;;;;;;15.75;13.25;;;;;11.04;100.00;98315.88;4953818;28;45554;-72
2022/11/16 07:51:01;;;;;;;;;12.75;11.25;;;;;11.02;100.00;98312.44;4953556;28;45394;-71
2022/11/16 07:53:27;;;;;;;;;12.25;10.00;;;;;11.01;100.00;98310.75;4934280;28;45460;-72
2022/11/16 07:55:53;;;;;;;;;15.25;14.00;;;;;11.01;100.00;98310.75;4946411;28;45387;-71
2022/11/16 07:58:19;;;;;;;;;15.25;13.00;;;;;11.02;100.00;98310.66;4940885;28;47300;-72
2022/11/16 08:00:44;;;;;;;;;12.00;10.75;;;;;11.03;100.00;98314.16;4951318;28;45316;-71
2022/11/16 08:03:10;;;;;;;;;11.50;10.00;;;;;11.03;100.00;98312.38;4952008;28;45449;-71
2022/11/16 08:05:35;;;;;;;;;12.75;10.00;;;;;11.05;100.00;98318.41;4949173;28;45520;-71
2022/11/16 08:08:01;;;;;;;;;13.25;10.75;;;;;11.05;100.00;98322.84;4952719;28;46357;-71
2022/11/16 08:10:26;;;;;;;;;15.00;13.50;;;;;11.03;100.00;98322.06;4953061;28;45423;-71
2022/11/16 08:12:52;;;;;;;;;11.75;10.00;;;;;11.03;100.00;98328.19;4935709;28;45419;-70
2022/11/16 08:15:17;;;;;;;;;14.75;14.00;;;;;11.02;99.91;98336.19;4961408;28;45536;-72
2022/11/16 08:17:43;;;;;;;;;15.75;12.25;;;;;11.00;99.91;98324.88;4967175;28;45456;-72
2022/11/16 08:20:08;;;;;;;;;11.00;10.75;;;;;10.99;100.00;98326.66;4937008;28;45435;-72
2022/11/16 08:22:34;;;;;;;;;13.50;13.00;;;;;11.03;100.00;98317.66;4941428;28;45462;-72
2022/11/16 08:24:59;;;;;;;;;14.25;11.25;;;;;11.09;99.88;98330.47;4935232;28;45435;-72
2022/11/16 08:27:25;;;;;;;;;10.75;9.00;;;;;11.17;99.31;98336.19;4941436;28;46523;-70
2022/11/16 08:29:50;;;;;;;;;8.25;8.00;;;;;11.26;99.18;98334.81;4952332;28;45389;-71
2022/11/16 08:32:16;;;;;;;;;7.50;7.50;;;;;11.35;98.63;98331.69;4940542;28;45845;-72
2022/11/16 08:34:41;;;;;;;;;8.75;8.25;;;;;11.43;98.03;98326.81;4941621;28;45307;-70
2022/11/16 08:37:06;;;;;;;;;14.00;12.25;;;;;11.46;97.48;98325.81;4936099;28;47575;-71
2022/11/16 08:39:32;;;;;;;;;10.25;10.25;;;;;11.47;97.07;98325.72;4935000;28;45327;-71
2022/11/16 08:41:57;;;;;;;;;10.75;9.25;;;;;11.46;96.64;98324.00;4934704;28;45396;-71
2022/11/16 08:44:22;;;;;;;;;8.00;7.50;;;;;11.46;96.99;98328.44;4935137;28;45513;-71
2022/11/16 08:46:48;;;;;;;;;7.25;7.25;;;;;11.46;96.60;98321.38;4952396;28;45322;-71
2022/11/16 08:49:13;;;;;;;;;5.00;5.00;;;;;11.48;96.39;98331.84;4954012;28;45350;-71
2022/11/16 08:51:38;;;;;;;;;9.75;9.00;;;;;11.47;96.15;98333.63;4953513;28;45522;-71
2022/11/16 08:54:05;;;;;;;;;8.75;8.75;;;;;11.50;96.40;98335.25;4942594;28;45371;-71
2022/11/16 08:56:30;;;;;;;;;6.00;6.00;;;;;11.56;96.08;98340.19;4951760;28;46663;-71
2022/11/16 08:58:56;;;;;;;;;6.75;6.00;;;;;11.61;95.89;98329.34;4953969;28;45521;-72
2022/11/16 09:01:25;;;;;;;;;7.00;5.00;;;;;11.67;94.90;98329.88;4954489;28;45445;-72
2022/11/16 09:03:51;;;;;;;;;5.00;5.00;;;;;11.73;94.52;98328.69;4953993;28;45409;-72
2022/11/16 09:06:17;;;;;;;;;7.00;6.00;;;;;11.79;94.53;98321.28;4954188;28;46180;-72
2022/11/16 09:08:44;;;;;;;;;5.00;4.50;;;;;11.86;94.31;98325.28;4968942;28;45317;-72
2022/11/16 09:11:12;;;;;;;;;7.80;6.60;;;;;11.92;94.24;98323.19;4953131;28;45448;-72
2022/11/16 09:13:38;;;;;;;;;6.50;5.50;;;;;11.97;93.68;98327.28;4954286;28;45386;-72
2022/11/16 09:16:04;;;;;;;;;7.25;6.50;;;;;12.02;93.73;98327.03;4954135;28;46421;-72
2022/11/16 09:18:30;;;;;;;;;11.00;8.75;;;;;12.06;93.47;98329.41;4953723;28;45430;-72
2022/11/16 09:20:55;;;;;;;;;8.00;7.00;;;;;12.08;93.34;98330.13;4968825;28;45442;-72
2022/11/16 09:23:21;;;;;;;;;7.25;6.00;;;;;12.13;93.30;98328.06;4951988;28;45391;-72
2022/11/16 09:25:47;;;;;;;;;9.50;8.25;;;;;12.18;92.86;98330.47;4953536;28;45445;-72
2022/11/16 09:28:20;;;;;;;;;10.25;9.00;;;;;12.22;92.87;98324.06;4968857;28;45399;-71
2022/11/16 09:30:48;;;;;;;;;9.25;8.25;;;;;12.24;92.75;98327.44;4953915;28;45424;-72
2022/11/16 09:33:14;;;;;;;;;8.25;8.25;;;;;12.27;92.80;98331.69;4937566;28;45416;-71
2022/11/16 09:35:39;;;;;;;;;11.75;9.50;;;;;12.30;93.08;98332.38;4936721;28;46234;-72
2022/11/16 09:38:05;;;;;;;;;9.75;8.50;;;;;12.34;92.56;98339.19;4937475;28;45380;-72
2022/11/16 09:40:41;;;;;;;;;14.00;12.00;;;;;12.37;92.05;98348.72;4937843;28;45471;-72
2022/11/16 09:43:46;;;;;;;;;9.50;9.50;;;;;12.41;92.46;98342.28;4964249;28;45510;-72
2022/11/16 09:46:42;;;;;;;;;10.00;8.75;;;;;12.44;92.39;98340.31;4947888;28;46190;-72
2022/11/16 09:49:31;;;;;;;;;10.00;9.20;;;;;12.50;92.46;98342.59;4956524;28;45414;-71
2022/11/16 09:52:04;;;;;;;;;7.50;7.00;;;;;12.56;92.29;98339.59;4955742;28;45502;-72
2022/11/16 09:54:34;;;;;;;;;11.25;10.75;;;;;12.65;92.25;98339.97;4954257;28;45434;-71
2022/11/16 09:57:04;;;;;;;;;10.00;9.50;;;;;12.70;91.32;98349.31;4937018;28;46651;-72
2022/11/16 09:59:42;;;;;;;;;10.00;10.00;;;;;12.75;91.48;98355.16;4936485;28;45473;-72
2022/11/16 10:02:25;;;;;;;;;3.00;1.25;;;;;12.77;90.39;98345.34;4937390;28;45391;-71
2022/11/16 10:05:01;;;;;;;;;8.50;8.50;;;;;12.75;90.11;98339.28;4943944;28;45526;-73
2022/11/16 10:07:42;;;;;;;;;11.00;11.00;;;;;12.78;90.74;98340.91;4941122;28;46563;-71
2022/11/16 10:10:16;;;;;;;;;17.25;14.50;;;;;12.85;90.95;98332.50;4948309;28;45394;-72
2022/11/16 10:13:01;;;;;;;;;11.25;10.75;;;;;12.94;90.23;98328.44;4937086;28;45479;-72
2022/11/16 10:15:48;;;;;;;;;16.75;15.50;;;;;13.05;90.47;98326.00;4936977;28;45423;-71
2022/11/16 10:18:50;;;;;;;;;13.00;11.25;;;;;13.17;89.56;98319.09;4947264;28;46672;-72
2022/11/16 10:21:39;;;;;;;;;15.00;11.00;;;;;13.26;89.30;98307.91;4955024;28;45969;-72
2022/11/16 10:24:25;;;;;;;;;8.00;8.00;;;;;13.37;87.95;98310.72;4932064;28;45434;-72
2022/11/16 10:26:58;;;;;;;;;13.00;12.00;;;;;13.42;88.19;98307.78;4937784;28;45429;-72
2022/11/16 10:29:55;;;;;;;;;10.20;9.00;;;;;13.47;87.83;98301.25;4955863;28;46245;-72
2022/11/16 10:32:27;;;;;;;;;6.60;6.60;;;;;13.51;86.50;98302.75;4933154;28;45490;-72
2022/11/16 10:35:13;;;;;;;;;9.50;8.75;;;;;13.55;87.07;98293.66;4941498;28;45520;-71
2022/11/16 10:37:45;;;;;;;;;11.25;10.00;;;;;13.60;87.13;98295.97;4941787;28;45490;-72
2022/11/16 10:40:16;;;;;;;;;8.25;7.75;;;;;13.63;86.31;98296.63;4936313;28;46590;-72
2022/11/16 10:42:45;;;;;;;;;11.40;10.60;;;;;13.65;86.41;98291.25;4946734;28;45417;-72
2022/11/16 10:45:23;;;;;;;;;19.25;16.75;;;;;13.69;86.15;98281.31;4949152;28;45460;-71
2022/11/16 10:47:56;;;;;;;;;13.50;13.00;;;;;13.73;86.60;98280.16;4948711;28;45540;-71
2022/11/16 10:50:44;;;;;;;;;9.75;8.75;;;;;13.72;85.72;98276.66;4955201;28;46799;-72
2022/11/16 10:53:15;;;;;;;;;15.00;11.60;;;;;13.73;85.59;98280.16;4955409;28;45506;-72
2022/11/16 10:55:41;;;;;;;;;8.00;8.00;;;;;13.76;85.54;98279.94;4955307;28;45441;-72
2022/11/16 10:58:06;;;;;;;;;10.00;9.50;;;;;13.80;85.61;98273.47;4952563;28;45480;-72
2022/11/16 11:00:45;;;;;;;;;9.25;9.25;;;;;13.82;84.68;98267.13;4947171;28;46188;-72
2022/11/16 11:03:11;;;;;;;;;13.60;13.00;;;;;13.86;84.57;98265.13;4935772;28;45475;-71
2022/11/16 11:05:47;;;;;;;;;16.50;15.00;;;;;13.90;83.51;98258.69;4935943;28;45428;-72
2022/11/16 11:08:24;;;;;;;;;12.00;11.75;;;;;13.94;83.30;98250.41;4936058;28;45428;-72
2022/11/16 11:11:00;;;;;;;;;11.00;9.00;;;;;13.98;82.68;98245.75;4951120;28;46728;-72
2022/11/16 11:13:26;;;;;;;;;8.80;8.00;;;;;14.02;82.74;98235.81;4953503;28;45508;-72
2022/11/16 11:16:11;;;;;;;;;5.50;5.00;;;;;14.06;82.00;98234.66;4937074;28;45455;-70
2022/11/16 11:18:36;;;;;;;;;19.25;19.25;;;;;14.10;81.55;98234.31;4936634;28;45393;-72
2022/11/16 11:21:19;;;;;;;;;4.75;4.75;;;;;14.15;81.44;98223.41;4955113;28;45535;-71
2022/11/16 11:23:48;;;;;;;;;7.20;5.20;;;;;14.17;81.57;98214.38;4953971;28;45914;-71
2022/11/16 11:26:35;;;;;;;;;8.00;7.00;;;;;14.20;81.75;98216.84;4954176;28;45429;-71
2022/11/16 11:29:14;;;;;;;;;5.00;5.00;;;;;14.24;81.17;98207.69;4955320;28;45388;-72
2022/11/16 11:31:48;;;;;;;;;7.00;6.00;;;;;14.26;80.92;98195.19;4952788;28;47705;-72
2022/11/16 11:34:16;;;;;;;;;6.40;5.60;;;;;14.29;80.70;98196.78;4954783;28;45425;-71
2022/11/16 11:36:50;;;;;;;;;7.20;6.20;;;;;14.33;81.27;98190.31;4938933;28;45437;-72
2022/11/16 11:39:15;;;;;;;;;10.00;9.00;;;;;14.37;81.36;98191.78;4935865;28;45684;-70
2022/11/16 11:41:58;;;;;;;;;6.00;6.00;;;;;14.40;81.01;98191.63;4939641;28;46137;-71
2022/11/16 11:44:34;;;;;;;;;7.00;6.80;;;;;14.42;80.55;98184.38;4942157;28;45500;-73
2022/11/16 11:47:15;;;;;;;;;4.80;4.80;;;;;14.46;80.68;98177.06;4936137;28;45361;-72
2022/11/16 11:49:48;;;;;;;;;7.00;7.00;;;;;14.51;80.77;98167.81;4935203;28;45383;-72
2022/11/16 11:52:38;;;;;;;;;10.00;7.25;;;;;14.53;80.15;98151.81;4935512;28;45449;-71
2022/11/16 11:55:06;;;;;;;;;9.20;7.40;;;;;14.55;79.52;98152.56;4948480;28;45405;-72
2022/11/16 11:57:38;;;;;;;;;6.40;5.40;;;;;14.56;79.81;98141.84;4935272;28;45442;-72
2022/11/16 12:00:05;;;;;;;;;8.25;4.75;;;;;14.59;80.06;98136.28;4935778;28;45356;-72
2022/11/16 12:02:42;;;;;;;;;16.75;14.75;;;;;14.61;80.20;98134.38;4949902;28;45320;-71
2022/11/16 12:05:42;;;;;;;;;7.00;4.80;;;;;14.61;79.47;98120.25;4954619;28;45471;-71
2022/11/16 12:08:29;;;;;;;;;5.80;5.20;;;;;14.65;79.45;98119.09;4933293;28;45525;-71
2022/11/16 12:11:04;;;;;;;;;5.75;5.00;;;;;14.68;78.99;98110.91;4947671;28;45454;-72
2022/11/16 12:13:56;;;;;;;;;4.00;3.60;;;;;14.72;79.53;98104.44;4934941;28;46145;-71
2022/11/16 12:16:28;;;;;;;;;3.00;3.00;;;;;14.76;79.42;98102.38;4956461;28;45466;-71
2022/11/16 12:19:30;;;;;;;;;2.00;2.00;;;;;14.76;78.68;98092.59;4934846;28;45413;-71
2022/11/16 12:22:03;;;;;;;;;4.00;3.00;;;;;14.80;78.27;98090.59;4934951;28;45360;-71
2022/11/16 12:24:41;;;;;;;;;5.60;4.40;;;;;14.82;78.49;98092.16;4934689;28;45452;-71
2022/11/16 12:27:14;;;;;;;;;1.80;1.80;;;;;14.84;78.17;98087.59;4934533;28;45510;-71
2022/11/16 12:30:01;;;;;;;;;3.60;2.40;;;;;14.87;77.47;98086.53;4933706;28;45382;-72